sensor_id;sensor_type;location;lat;lon;timestamp;P1;durP1;ratioP1;P2;durP2;ratioP2
54406;SDS011;40313;50.308;30.374;2023-02-22T00:07:40;17.30;;;7.80;;
54406;SDS011;40313;50.308;30.374;2023-02-22T00:17:30;6.30;;;5.80;;
54406;SDS011;40313;50.308;30.374;2023-02-22T00:29:46;5.43;;;4.93;;
54406;SDS011;40313;50.308;30.374;2023-02-22T00:32:13;3.10;;;2.90;;
54406;SDS011;40313;50.308;30.374;2023-02-22T00:34:40;5.22;;;4.72;;
54406;SDS011;40313;50.308;30.374;2023-02-22T00:37:07;4.47;;;3.60;;
54406;SDS011;40313;50.308;30.374;2023-02-22T00:39:36;6.68;;;3.53;;
54406;SDS011;40313;50.308;30.374;2023-02-22T00:42:02;2.53;;;2.33;;
54406;SDS011;40313;50.308;30.374;2023-02-22T00:44:29;4.70;;;4.40;;
54406;SDS011;40313;50.308;30.374;2023-02-22T00:46:57;3.97;;;3.47;;
54406;SDS011;40313;50.308;30.374;2023-02-22T00:49:23;5.00;;;4.57;;
54406;SDS011;40313;50.308;30.374;2023-02-22T00:51:50;7.10;;;6.03;;
54406;SDS011;40313;50.308;30.374;2023-02-22T00:54:16;7.10;;;6.53;;
54406;SDS011;40313;50.308;30.374;2023-02-22T00:56:45;6.13;;;5.68;;
54406;SDS011;40313;50.308;30.374;2023-02-22T00:59:12;7.28;;;6.63;;
54406;SDS011;40313;50.308;30.374;2023-02-22T01:01:38;6.53;;;4.40;;
54406;SDS011;40313;50.308;30.374;2023-02-22T01:04:05;5.30;;;4.93;;
54406;SDS011;40313;50.308;30.374;2023-02-22T01:06:31;5.57;;;5.18;;
54406;SDS011;40313;50.308;30.374;2023-02-22T01:08:58;5.13;;;4.40;;
54406;SDS011;40313;50.308;30.374;2023-02-22T01:11:26;5.13;;;4.82;;
54406;SDS011;40313;50.308;30.374;2023-02-22T01:13:54;6.97;;;4.53;;
54406;SDS011;40313;50.308;30.374;2023-02-22T01:16:21;5.78;;;5.25;;
54406;SDS011;40313;50.308;30.374;2023-02-22T01:18:48;5.90;;;5.40;;
54406;SDS011;40313;50.308;30.374;2023-02-22T01:21:15;5.80;;;5.20;;
54406;SDS011;40313;50.308;30.374;2023-02-22T01:23:43;6.35;;;5.85;;
54406;SDS011;40313;50.308;30.374;2023-02-22T01:26:10;6.47;;;6.05;;
54406;SDS011;40313;50.308;30.374;2023-02-22T01:28:36;5.55;;;5.15;;
54406;SDS011;40313;50.308;30.374;2023-02-22T01:31:05;4.55;;;4.22;;
54406;SDS011;40313;50.308;30.374;2023-02-22T01:33:31;5.93;;;5.45;;
54406;SDS011;40313;50.308;30.374;2023-02-22T01:35:58;5.43;;;5.03;;
54406;SDS011;40313;50.308;30.374;2023-02-22T01:38:25;7.68;;;5.40;;
54406;SDS011;40313;50.308;30.374;2023-02-22T01:40:52;7.65;;;5.50;;
54406;SDS011;40313;50.308;30.374;2023-02-22T01:43:20;5.75;;;4.68;;
54406;SDS011;40313;50.308;30.374;2023-02-22T01:45:48;4.53;;;4.30;;
54406;SDS011;40313;50.308;30.374;2023-02-22T01:48:23;4.55;;;3.85;;
54406;SDS011;40313;50.308;30.374;2023-02-22T02:41:46;14.35;;;4.82;;
54406;SDS011;40313;50.308;30.374;2023-02-22T02:44:16;7.53;;;4.38;;
54406;SDS011;40313;50.308;30.374;2023-02-22T02:46:50;7.18;;;6.68;;
54406;SDS011;40313;50.308;30.374;2023-02-22T02:49:24;8.90;;;4.10;;
54406;SDS011;40313;50.308;30.374;2023-02-22T02:51:55;4.82;;;4.53;;
54406;SDS011;40313;50.308;30.374;2023-02-22T02:54:23;4.57;;;4.22;;
54406;SDS011;40313;50.308;30.374;2023-02-22T02:56:50;8.02;;;4.38;;
54406;SDS011;40313;50.308;30.374;2023-02-22T02:59:23;4.35;;;4.03;;
54406;SDS011;40313;50.308;30.374;2023-02-22T03:01:55;4.78;;;2.85;;
54406;SDS011;40313;50.308;30.374;2023-02-22T03:04:34;2.67;;;2.15;;
54406;SDS011;40313;50.308;30.374;2023-02-22T03:07:14;6.53;;;4.93;;
54406;SDS011;40313;50.308;30.374;2023-02-22T03:09:52;3.88;;;3.58;;
54406;SDS011;40313;50.308;30.374;2023-02-22T03:12:27;7.72;;;5.43;;
54406;SDS011;40313;50.308;30.374;2023-02-22T03:15:05;5.18;;;4.75;;
54406;SDS011;40313;50.308;30.374;2023-02-22T03:17:40;6.95;;;4.43;;
54406;SDS011;40313;50.308;30.374;2023-02-22T03:20:15;3.00;;;2.80;;
54406;SDS011;40313;50.308;30.374;2023-02-22T03:22:56;3.85;;;3.55;;
54406;SDS011;40313;50.308;30.374;2023-02-22T03:25:29;2.15;;;2.05;;
54406;SDS011;40313;50.308;30.374;2023-02-22T03:28:00;4.50;;;4.10;;
54406;SDS011;40313;50.308;30.374;2023-02-22T03:30:32;6.82;;;3.50;;
54406;SDS011;40313;50.308;30.374;2023-02-22T03:33:04;3.30;;;2.72;;
54406;SDS011;40313;50.308;30.374;2023-02-22T03:35:36;4.68;;;4.35;;
54406;SDS011;40313;50.308;30.374;2023-02-22T03:38:08;3.72;;;3.50;;
54406;SDS011;40313;50.308;30.374;2023-02-22T03:40:39;4.32;;;4.03;;
54406;SDS011;40313;50.308;30.374;2023-02-22T03:43:10;5.88;;;4.22;;
54406;SDS011;40313;50.308;30.374;2023-02-22T03:45:40;3.25;;;3.05;;
54406;SDS011;40313;50.308;30.374;2023-02-22T03:48:12;3.85;;;3.55;;
54406;SDS011;40313;50.308;30.374;2023-02-22T03:50:45;7.18;;;4.35;;
54406;SDS011;40313;50.308;30.374;2023-02-22T03:53:14;4.75;;;2.83;;
54406;SDS011;40313;50.308;30.374;2023-02-22T03:55:42;2.35;;;1.98;;
54406;SDS011;40313;50.308;30.374;2023-02-22T03:58:09;4.28;;;3.97;;
54406;SDS011;40313;50.308;30.374;2023-02-22T04:00:38;3.83;;;3.53;;
54406;SDS011;40313;50.308;30.374;2023-02-22T04:03:08;4.90;;;4.60;;
54406;SDS011;40313;50.308;30.374;2023-02-22T04:05:35;2.72;;;2.53;;
54406;SDS011;40313;50.308;30.374;2023-02-22T04:08:03;13.48;;;4.45;;
54406;SDS011;40313;50.308;30.374;2023-02-22T04:10:30;4.05;;;3.83;;
54406;SDS011;40313;50.308;30.374;2023-02-22T04:12:57;7.43;;;4.78;;
54406;SDS011;40313;50.308;30.374;2023-02-22T04:15:24;7.32;;;4.07;;
54406;SDS011;40313;50.308;30.374;2023-02-22T04:17:50;3.15;;;2.88;;
54406;SDS011;40313;50.308;30.374;2023-02-22T04:20:17;3.13;;;2.92;;
54406;SDS011;40313;50.308;30.374;2023-02-22T04:22:44;3.53;;;3.33;;
54406;SDS011;40313;50.308;30.374;2023-02-22T04:25:13;4.38;;;3.92;;
54406;SDS011;40313;50.308;30.374;2023-02-22T04:27:39;2.95;;;2.30;;
54406;SDS011;40313;50.308;30.374;2023-02-22T04:30:07;4.95;;;3.92;;
54406;SDS011;40313;50.308;30.374;2023-02-22T04:32:34;13.60;;;3.30;;
54406;SDS011;40313;50.308;30.374;2023-02-22T04:35:01;4.28;;;3.88;;
54406;SDS011;40313;50.308;30.374;2023-02-22T04:37:27;6.45;;;5.97;;
54406;SDS011;40313;50.308;30.374;2023-02-22T04:39:54;4.85;;;3.13;;
54406;SDS011;40313;50.308;30.374;2023-02-22T04:42:22;4.95;;;4.65;;
54406;SDS011;40313;50.308;30.374;2023-02-22T04:44:48;13.45;;;10.10;;
54406;SDS011;40313;50.308;30.374;2023-02-22T04:47:15;4.63;;;4.20;;
54406;SDS011;40313;50.308;30.374;2023-02-22T04:49:41;5.78;;;5.22;;
54406;SDS011;40313;50.308;30.374;2023-02-22T05:04:24;16.20;;;11.82;;
54406;SDS011;40313;50.308;30.374;2023-02-22T05:06:51;7.53;;;6.97;;
54406;SDS011;40313;50.308;30.374;2023-02-22T05:09:18;7.68;;;4.22;;
54406;SDS011;40313;50.308;30.374;2023-02-22T05:11:44;15.68;;;8.00;;
54406;SDS011;40313;50.308;30.374;2023-02-22T05:14:11;4.65;;;4.28;;
54406;SDS011;40313;50.308;30.374;2023-02-22T05:16:39;17.27;;;8.63;;
54406;SDS011;40313;50.308;30.374;2023-02-22T05:19:06;10.30;;;8.45;;
54406;SDS011;40313;50.308;30.374;2023-02-22T05:21:32;11.65;;;7.13;;
54406;SDS011;40313;50.308;30.374;2023-02-22T05:23:59;8.32;;;7.63;;
54406;SDS011;40313;50.308;30.374;2023-02-22T05:26:25;4.35;;;3.08;;
54406;SDS011;40313;50.308;30.374;2023-02-22T05:28:52;6.20;;;5.03;;
54406;SDS011;40313;50.308;30.374;2023-02-22T05:31:18;9.53;;;8.60;;
54406;SDS011;40313;50.308;30.374;2023-02-22T05:33:46;13.00;;;9.02;;
54406;SDS011;40313;50.308;30.374;2023-02-22T05:36:13;7.65;;;6.93;;
54406;SDS011;40313;50.308;30.374;2023-02-22T05:38:40;10.38;;;8.63;;
54406;SDS011;40313;50.308;30.374;2023-02-22T05:41:08;12.63;;;8.93;;
54406;SDS011;40313;50.308;30.374;2023-02-22T05:43:35;11.80;;;7.82;;
54406;SDS011;40313;50.308;30.374;2023-02-22T05:46:02;7.22;;;6.68;;
54406;SDS011;40313;50.308;30.374;2023-02-22T05:48:29;15.52;;;10.10;;
54406;SDS011;40313;50.308;30.374;2023-02-22T05:50:57;9.50;;;8.82;;
54406;SDS011;40313;50.308;30.374;2023-02-22T05:53:24;7.38;;;6.80;;
54406;SDS011;40313;50.308;30.374;2023-02-22T05:55:50;8.63;;;7.97;;
54406;SDS011;40313;50.308;30.374;2023-02-22T05:58:17;8.82;;;7.75;;
54406;SDS011;40313;50.308;30.374;2023-02-22T06:00:44;9.52;;;7.85;;
54406;SDS011;40313;50.308;30.374;2023-02-22T06:03:11;9.30;;;8.30;;
54406;SDS011;40313;50.308;30.374;2023-02-22T06:05:37;10.82;;;9.77;;
54406;SDS011;40313;50.308;30.374;2023-02-22T06:08:06;13.77;;;10.85;;
54406;SDS011;40313;50.308;30.374;2023-02-22T06:10:33;8.55;;;7.85;;
54406;SDS011;40313;50.308;30.374;2023-02-22T06:13:00;18.17;;;9.27;;
54406;SDS011;40313;50.308;30.374;2023-02-22T06:15:27;9.63;;;8.50;;
54406;SDS011;40313;50.308;30.374;2023-02-22T06:17:54;9.27;;;8.40;;
54406;SDS011;40313;50.308;30.374;2023-02-22T06:20:23;14.27;;;9.65;;
54406;SDS011;40313;50.308;30.374;2023-02-22T06:22:52;16.05;;;11.23;;
54406;SDS011;40313;50.308;30.374;2023-02-22T06:25:22;17.50;;;12.88;;
54406;SDS011;40313;50.308;30.374;2023-02-22T06:27:50;21.23;;;10.95;;
54406;SDS011;40313;50.308;30.374;2023-02-22T06:30:17;13.82;;;7.60;;
54406;SDS011;40313;50.308;30.374;2023-02-22T06:32:45;13.80;;;9.90;;
54406;SDS011;40313;50.308;30.374;2023-02-22T06:35:12;9.73;;;8.77;;
54406;SDS011;40313;50.308;30.374;2023-02-22T06:37:39;14.88;;;6.80;;
54406;SDS011;40313;50.308;30.374;2023-02-22T06:40:06;11.00;;;9.85;;
54406;SDS011;40313;50.308;30.374;2023-02-22T06:42:36;14.52;;;9.10;;
54406;SDS011;40313;50.308;30.374;2023-02-22T06:45:03;12.07;;;10.77;;
54406;SDS011;40313;50.308;30.374;2023-02-22T06:47:30;7.60;;;6.70;;
54406;SDS011;40313;50.308;30.374;2023-02-22T06:49:57;12.23;;;8.95;;
54406;SDS011;40313;50.308;30.374;2023-02-22T06:52:25;13.60;;;9.30;;
54406;SDS011;40313;50.308;30.374;2023-02-22T06:54:51;14.40;;;10.68;;
54406;SDS011;40313;50.308;30.374;2023-02-22T06:57:18;14.25;;;11.20;;
54406;SDS011;40313;50.308;30.374;2023-02-22T06:59:46;14.65;;;12.38;;
54406;SDS011;40313;50.308;30.374;2023-02-22T07:02:12;12.77;;;8.07;;
54406;SDS011;40313;50.308;30.374;2023-02-22T07:04:39;7.07;;;6.32;;
54406;SDS011;40313;50.308;30.374;2023-02-22T07:07:06;9.27;;;7.93;;
54406;SDS011;40313;50.308;30.374;2023-02-22T07:09:32;13.93;;;9.15;;
54406;SDS011;40313;50.308;30.374;2023-02-22T07:11:59;8.93;;;7.13;;
54406;SDS011;40313;50.308;30.374;2023-02-22T07:14:25;17.10;;;8.40;;
54406;SDS011;40313;50.308;30.374;2023-02-22T07:16:53;10.07;;;8.55;;
54406;SDS011;40313;50.308;30.374;2023-02-22T07:19:20;16.27;;;12.60;;
54406;SDS011;40313;50.308;30.374;2023-02-22T07:21:46;9.00;;;8.25;;
54406;SDS011;40313;50.308;30.374;2023-02-22T07:24:14;61.08;;;26.33;;
54406;SDS011;40313;50.308;30.374;2023-02-22T07:26:41;19.88;;;13.38;;
54406;SDS011;40313;50.308;30.374;2023-02-22T07:29:07;25.00;;;11.60;;
54406;SDS011;40313;50.308;30.374;2023-02-22T07:31:35;23.33;;;13.52;;
54406;SDS011;40313;50.308;30.374;2023-02-22T07:34:04;8.60;;;7.75;;
54406;SDS011;40313;50.308;30.374;2023-02-22T07:36:31;13.18;;;8.05;;
54406;SDS011;40313;50.308;30.374;2023-02-22T07:38:57;16.42;;;12.13;;
54406;SDS011;40313;50.308;30.374;2023-02-22T07:41:24;12.48;;;10.45;;
54406;SDS011;40313;50.308;30.374;2023-02-22T07:43:50;10.70;;;8.48;;
54406;SDS011;40313;50.308;30.374;2023-02-22T07:46:17;15.88;;;7.55;;
54406;SDS011;40313;50.308;30.374;2023-02-22T07:48:43;11.77;;;8.75;;
54406;SDS011;40313;50.308;30.374;2023-02-22T07:51:13;10.30;;;9.55;;
54406;SDS011;40313;50.308;30.374;2023-02-22T07:53:40;14.18;;;10.35;;
54406;SDS011;40313;50.308;30.374;2023-02-22T07:56:06;19.67;;;10.93;;
54406;SDS011;40313;50.308;30.374;2023-02-22T07:58:34;18.35;;;11.80;;
54406;SDS011;40313;50.308;30.374;2023-02-22T08:01:00;12.57;;;6.68;;
54406;SDS011;40313;50.308;30.374;2023-02-22T08:03:28;17.00;;;11.50;;
54406;SDS011;40313;50.308;30.374;2023-02-22T08:55:07;24.38;;;14.60;;
54406;SDS011;40313;50.308;30.374;2023-02-22T09:00:01;10.90;;;9.93;;
54406;SDS011;40313;50.308;30.374;2023-02-22T10:14:45;30.90;;;16.80;;
54406;SDS011;40313;50.308;30.374;2023-02-22T10:17:23;22.50;;;11.90;;
54406;SDS011;40313;50.308;30.374;2023-02-22T10:20:05;11.15;;;10.05;;
54406;SDS011;40313;50.308;30.374;2023-02-22T10:57:38;9.35;;;8.55;;
54406;SDS011;40313;50.308;30.374;2023-02-22T11:00:13;9.70;;;8.65;;
54406;SDS011;40313;50.308;30.374;2023-02-22T11:02:48;6.70;;;5.65;;
54406;SDS011;40313;50.308;30.374;2023-02-22T11:05:25;7.30;;;6.70;;
54406;SDS011;40313;50.308;30.374;2023-02-22T11:08:00;14.68;;;9.88;;
54406;SDS011;40313;50.308;30.374;2023-02-22T11:10:40;14.52;;;10.60;;
54406;SDS011;40313;50.308;30.374;2023-02-22T11:13:15;29.38;;;15.18;;
54406;SDS011;40313;50.308;30.374;2023-02-22T11:15:42;14.40;;;10.65;;
54406;SDS011;40313;50.308;30.374;2023-02-22T11:18:15;14.65;;;10.50;;
54406;SDS011;40313;50.308;30.374;2023-02-22T11:20:49;9.55;;;8.75;;
54406;SDS011;40313;50.308;30.374;2023-02-22T11:23:26;12.15;;;8.07;;
54406;SDS011;40313;50.308;30.374;2023-02-22T11:25:58;7.47;;;6.78;;
54406;SDS011;40313;50.308;30.374;2023-02-22T11:28:28;9.20;;;7.47;;
54406;SDS011;40313;50.308;30.374;2023-02-22T11:30:57;8.13;;;7.15;;
54406;SDS011;40313;50.308;30.374;2023-02-22T11:33:33;8.15;;;7.47;;
54406;SDS011;40313;50.308;30.374;2023-02-22T11:36:02;7.78;;;7.18;;
54406;SDS011;40313;50.308;30.374;2023-02-22T11:38:35;9.85;;;8.80;;
54406;SDS011;40313;50.308;30.374;2023-02-22T11:41:04;9.63;;;8.85;;
54406;SDS011;40313;50.308;30.374;2023-02-22T11:43:38;7.00;;;6.55;;
54406;SDS011;40313;50.308;30.374;2023-02-22T11:46:05;10.65;;;8.65;;
54406;SDS011;40313;50.308;30.374;2023-02-22T11:48:37;12.57;;;9.10;;
54406;SDS011;40313;50.308;30.374;2023-02-22T11:51:11;6.57;;;5.97;;
54406;SDS011;40313;50.308;30.374;2023-02-22T11:54:02;6.30;;;5.80;;
54406;SDS011;40313;50.308;30.374;2023-02-22T11:56:52;7.90;;;7.00;;
54406;SDS011;40313;50.308;30.374;2023-02-22T11:59:32;5.50;;;5.10;;
54406;SDS011;40313;50.308;30.374;2023-02-22T12:02:13;7.10;;;6.18;;
54406;SDS011;40313;50.308;30.374;2023-02-22T12:07:48;7.38;;;6.78;;
54406;SDS011;40313;50.308;30.374;2023-02-22T12:10:28;8.23;;;7.38;;
54406;SDS011;40313;50.308;30.374;2023-02-22T12:13:16;8.98;;;6.85;;
54406;SDS011;40313;50.308;30.374;2023-02-22T12:15:52;6.88;;;6.38;;
54406;SDS011;40313;50.308;30.374;2023-02-22T12:18:29;7.82;;;7.13;;
54406;SDS011;40313;50.308;30.374;2023-02-22T12:21:05;7.43;;;6.75;;
54406;SDS011;40313;50.308;30.374;2023-02-22T12:23:41;7.87;;;7.07;;
54406;SDS011;40313;50.308;30.374;2023-02-22T12:26:17;6.50;;;5.95;;
54406;SDS011;40313;50.308;30.374;2023-02-22T12:28:50;6.85;;;6.38;;
54406;SDS011;40313;50.308;30.374;2023-02-22T12:31:24;7.00;;;6.40;;
54406;SDS011;40313;50.308;30.374;2023-02-22T12:33:58;7.13;;;5.30;;
54406;SDS011;40313;50.308;30.374;2023-02-22T12:36:34;6.20;;;5.63;;
54406;SDS011;40313;50.308;30.374;2023-02-22T12:39:10;5.80;;;4.93;;
54406;SDS011;40313;50.308;30.374;2023-02-22T12:41:54;11.07;;;9.95;;
54406;SDS011;40313;50.308;30.374;2023-02-22T12:44:23;5.00;;;4.60;;
54406;SDS011;40313;50.308;30.374;2023-02-22T13:35:14;5.03;;;4.73;;
54406;SDS011;40313;50.308;30.374;2023-02-22T13:46:27;5.90;;;5.38;;
54406;SDS011;40313;50.308;30.374;2023-02-22T13:52:19;6.78;;;6.18;;
54406;SDS011;40313;50.308;30.374;2023-02-22T13:54:50;5.50;;;5.05;;
54406;SDS011;40313;50.308;30.374;2023-02-22T13:57:21;6.38;;;5.88;;
54406;SDS011;40313;50.308;30.374;2023-02-22T14:05:45;6.65;;;6.13;;
54406;SDS011;40313;50.308;30.374;2023-02-22T14:14:21;7.45;;;5.22;;
54406;SDS011;40313;50.308;30.374;2023-02-22T14:22:45;16.25;;;5.57;;
54406;SDS011;40313;50.308;30.374;2023-02-22T14:25:29;9.13;;;8.40;;
54406;SDS011;40313;50.308;30.374;2023-02-22T14:27:58;10.80;;;6.80;;
54406;SDS011;40313;50.308;30.374;2023-02-22T14:30:27;6.97;;;6.43;;
54406;SDS011;40313;50.308;30.374;2023-02-22T14:32:55;8.23;;;7.40;;
54406;SDS011;40313;50.308;30.374;2023-02-22T14:35:26;7.70;;;7.10;;
54406;SDS011;40313;50.308;30.374;2023-02-22T14:38:02;9.95;;;5.90;;
54406;SDS011;40313;50.308;30.374;2023-02-22T14:40:31;8.02;;;7.13;;
54406;SDS011;40313;50.308;30.374;2023-02-22T14:43:00;6.95;;;6.10;;
54406;SDS011;40313;50.308;30.374;2023-02-22T14:45:30;6.55;;;5.97;;
54406;SDS011;40313;50.308;30.374;2023-02-22T14:47:59;6.43;;;5.80;;
54406;SDS011;40313;50.308;30.374;2023-02-22T14:50:41;8.13;;;7.50;;
54406;SDS011;40313;50.308;30.374;2023-02-22T14:53:17;9.60;;;6.90;;
54406;SDS011;40313;50.308;30.374;2023-02-22T14:55:50;8.38;;;7.68;;
54406;SDS011;40313;50.308;30.374;2023-02-22T14:58:21;7.63;;;7.10;;
54406;SDS011;40313;50.308;30.374;2023-02-22T15:00:54;13.25;;;7.70;;
54406;SDS011;40313;50.308;30.374;2023-02-22T15:03:24;8.75;;;7.75;;
54406;SDS011;40313;50.308;30.374;2023-02-22T15:06:02;7.97;;;7.38;;
54406;SDS011;40313;50.308;30.374;2023-02-22T15:08:29;8.30;;;7.38;;
54406;SDS011;40313;50.308;30.374;2023-02-22T15:10:58;9.45;;;8.73;;
54406;SDS011;40313;50.308;30.374;2023-02-22T15:13:27;10.27;;;9.02;;
54406;SDS011;40313;50.308;30.374;2023-02-22T15:15:57;12.15;;;9.30;;
54406;SDS011;40313;50.308;30.374;2023-02-22T15:18:26;9.40;;;7.82;;
54406;SDS011;40313;50.308;30.374;2023-02-22T15:21:02;8.68;;;7.97;;
54406;SDS011;40313;50.308;30.374;2023-02-22T15:23:38;10.43;;;9.27;;
54406;SDS011;40313;50.308;30.374;2023-02-22T15:26:06;14.43;;;8.82;;
54406;SDS011;40313;50.308;30.374;2023-02-22T15:28:40;9.35;;;8.43;;
54406;SDS011;40313;50.308;30.374;2023-02-22T15:31:14;9.65;;;8.68;;
54406;SDS011;40313;50.308;30.374;2023-02-22T15:33:42;9.70;;;8.52;;
54406;SDS011;40313;50.308;30.374;2023-02-22T15:36:13;11.25;;;9.65;;
54406;SDS011;40313;50.308;30.374;2023-02-22T15:38:46;11.85;;;9.20;;
54406;SDS011;40313;50.308;30.374;2023-02-22T15:41:19;11.18;;;9.32;;
54406;SDS011;40313;50.308;30.374;2023-02-22T15:44:02;11.85;;;9.63;;
54406;SDS011;40313;50.308;30.374;2023-02-22T16:04:01;23.35;;;9.93;;
54406;SDS011;40313;50.308;30.374;2023-02-22T16:19:23;15.10;;;9.80;;
54406;SDS011;40313;50.308;30.374;2023-02-22T16:21:49;13.60;;;10.40;;
54406;SDS011;40313;50.308;30.374;2023-02-22T16:24:25;11.70;;;10.60;;
54406;SDS011;40313;50.308;30.374;2023-02-22T16:27:13;11.40;;;10.50;;
54406;SDS011;40313;50.308;30.374;2023-02-22T16:34:35;20.20;;;14.10;;
54406;SDS011;40313;50.308;30.374;2023-02-22T16:37:02;22.50;;;13.30;;
54406;SDS011;40313;50.308;30.374;2023-02-22T16:39:30;11.90;;;10.80;;
54406;SDS011;40313;50.308;30.374;2023-02-22T16:42:00;11.20;;;10.10;;
54406;SDS011;40313;50.308;30.374;2023-02-22T16:44:29;19.20;;;12.35;;
54406;SDS011;40313;50.308;30.374;2023-02-22T16:46:56;15.90;;;11.00;;
54406;SDS011;40313;50.308;30.374;2023-02-22T16:51:52;9.60;;;8.70;;
54406;SDS011;40313;50.308;30.374;2023-02-22T16:54:22;34.85;;;20.35;;
54406;SDS011;40313;50.308;30.374;2023-02-22T16:56:53;23.75;;;14.05;;
54406;SDS011;40313;50.308;30.374;2023-02-22T16:59:20;54.80;;;23.40;;
54406;SDS011;40313;50.308;30.374;2023-02-22T17:01:47;66.30;;;25.30;;
54406;SDS011;40313;50.308;30.374;2023-02-22T17:04:14;77.10;;;31.70;;
54406;SDS011;40313;50.308;30.374;2023-02-22T17:11:36;27.80;;;17.90;;
54406;SDS011;40313;50.308;30.374;2023-02-22T17:14:05;20.80;;;16.30;;
54406;SDS011;40313;50.308;30.374;2023-02-22T17:16:31;29.70;;;14.40;;
54406;SDS011;40313;50.308;30.374;2023-02-22T17:18:58;22.15;;;15.25;;
54406;SDS011;40313;50.308;30.374;2023-02-22T17:21:24;25.70;;;17.50;;
54406;SDS011;40313;50.308;30.374;2023-02-22T17:23:51;24.20;;;16.20;;
54406;SDS011;40313;50.308;30.374;2023-02-22T17:26:17;27.70;;;16.40;;
54406;SDS011;40313;50.308;30.374;2023-02-22T17:28:44;37.10;;;16.80;;
54406;SDS011;40313;50.308;30.374;2023-02-22T17:31:17;38.10;;;18.60;;
54406;SDS011;40313;50.308;30.374;2023-02-22T17:33:45;55.80;;;28.67;;
54406;SDS011;40313;50.308;30.374;2023-02-22T17:36:12;50.83;;;27.38;;
54406;SDS011;40313;50.308;30.374;2023-02-22T17:38:39;38.03;;;22.02;;
54406;SDS011;40313;50.308;30.374;2023-02-22T17:41:06;42.03;;;23.87;;
54406;SDS011;40313;50.308;30.374;2023-02-22T17:43:33;70.50;;;29.00;;
54406;SDS011;40313;50.308;30.374;2023-02-22T17:46:01;83.60;;;39.70;;
54406;SDS011;40313;50.308;30.374;2023-02-22T17:51:03;92.10;;;43.40;;
54406;SDS011;40313;50.308;30.374;2023-02-22T17:53:30;58.60;;;30.40;;
54406;SDS011;40313;50.308;30.374;2023-02-22T17:55:57;54.80;;;26.80;;
54406;SDS011;40313;50.308;30.374;2023-02-22T18:00:54;40.40;;;21.10;;
54406;SDS011;40313;50.308;30.374;2023-02-22T18:03:23;37.80;;;19.90;;
54406;SDS011;40313;50.308;30.374;2023-02-22T18:05:53;47.10;;;23.50;;
54406;SDS011;40313;50.308;30.374;2023-02-22T18:13:16;69.00;;;32.40;;
54406;SDS011;40313;50.308;30.374;2023-02-22T18:15:44;35.55;;;19.65;;
54406;SDS011;40313;50.308;30.374;2023-02-22T18:18:11;29.90;;;14.10;;
54406;SDS011;40313;50.308;30.374;2023-02-22T18:20:39;21.58;;;11.63;;
54406;SDS011;40313;50.308;30.374;2023-02-22T18:23:10;17.90;;;12.50;;
54406;SDS011;40313;50.308;30.374;2023-02-22T18:25:38;32.35;;;15.68;;
54406;SDS011;40313;50.308;30.374;2023-02-22T18:28:06;18.17;;;12.73;;
54406;SDS011;40313;50.308;30.374;2023-02-22T18:30:33;22.95;;;11.18;;
54406;SDS011;40313;50.308;30.374;2023-02-22T18:33:05;28.17;;;13.82;;
54406;SDS011;40313;50.308;30.374;2023-02-22T18:35:35;22.88;;;13.73;;
54406;SDS011;40313;50.308;30.374;2023-02-22T18:38:01;22.13;;;12.15;;
54406;SDS011;40313;50.308;30.374;2023-02-22T18:40:30;16.63;;;9.52;;
54406;SDS011;40313;50.308;30.374;2023-02-22T18:42:57;22.85;;;15.30;;
54406;SDS011;40313;50.308;30.374;2023-02-22T18:45:23;32.50;;;17.90;;
54406;SDS011;40313;50.308;30.374;2023-02-22T18:47:50;41.15;;;20.10;;
54406;SDS011;40313;50.308;30.374;2023-02-22T18:50:18;35.47;;;21.80;;
54406;SDS011;40313;50.308;30.374;2023-02-22T18:52:44;18.83;;;11.65;;
54406;SDS011;40313;50.308;30.374;2023-02-22T18:55:11;29.42;;;15.05;;
54406;SDS011;40313;50.308;30.374;2023-02-22T18:57:40;73.60;;;33.35;;
54406;SDS011;40313;50.308;30.374;2023-02-22T19:00:07;50.55;;;28.38;;
54406;SDS011;40313;50.308;30.374;2023-02-22T19:02:35;51.50;;;25.30;;
54406;SDS011;40313;50.308;30.374;2023-02-22T19:05:02;72.28;;;31.38;;
54406;SDS011;40313;50.308;30.374;2023-02-22T19:07:30;92.47;;;38.55;;
54406;SDS011;40313;50.308;30.374;2023-02-22T19:09:58;129.98;;;48.35;;
54406;SDS011;40313;50.308;30.374;2023-02-22T19:12:26;122.10;;;49.45;;
54406;SDS011;40313;50.308;30.374;2023-02-22T19:14:56;94.28;;;42.13;;
54406;SDS011;40313;50.308;30.374;2023-02-22T19:17:23;73.05;;;34.38;;
54406;SDS011;40313;50.308;30.374;2023-02-22T19:19:50;35.28;;;19.55;;
54406;SDS011;40313;50.308;30.374;2023-02-22T19:22:17;18.05;;;12.43;;
54406;SDS011;40313;50.308;30.374;2023-02-22T19:24:43;12.75;;;10.10;;
54406;SDS011;40313;50.308;30.374;2023-02-22T19:27:10;30.83;;;15.82;;
54406;SDS011;40313;50.308;30.374;2023-02-22T19:29:38;36.88;;;17.02;;
54406;SDS011;40313;50.308;30.374;2023-02-22T19:32:06;33.92;;;18.15;;
54406;SDS011;40313;50.308;30.374;2023-02-22T19:34:35;31.55;;;15.70;;
54406;SDS011;40313;50.308;30.374;2023-02-22T19:37:03;39.42;;;18.73;;
54406;SDS011;40313;50.308;30.374;2023-02-22T19:39:30;37.70;;;21.52;;
54406;SDS011;40313;50.308;30.374;2023-02-22T19:41:59;59.10;;;25.17;;
54406;SDS011;40313;50.308;30.374;2023-02-22T19:44:25;75.10;;;30.75;;
54406;SDS011;40313;50.308;30.374;2023-02-22T19:46:53;65.65;;;32.75;;
54406;SDS011;40313;50.308;30.374;2023-02-22T19:51:47;62.35;;;25.05;;
54406;SDS011;40313;50.308;30.374;2023-02-22T19:54:15;77.35;;;29.65;;
54406;SDS011;40313;50.308;30.374;2023-02-22T19:56:45;56.90;;;24.40;;
54406;SDS011;40313;50.308;30.374;2023-02-22T19:59:15;45.00;;;20.35;;
54406;SDS011;40313;50.308;30.374;2023-02-22T20:01:46;28.70;;;18.30;;
54406;SDS011;40313;50.308;30.374;2023-02-22T20:04:14;25.60;;;16.20;;
54406;SDS011;40313;50.308;30.374;2023-02-22T20:06:46;28.55;;;16.35;;
54406;SDS011;40313;50.308;30.374;2023-02-22T20:14:12;16.45;;;12.75;;
54406;SDS011;40313;50.308;30.374;2023-02-22T20:19:08;21.20;;;13.40;;
54406;SDS011;40313;50.308;30.374;2023-02-22T20:21:35;21.15;;;13.50;;
54406;SDS011;40313;50.308;30.374;2023-02-22T20:28:59;28.00;;;15.50;;
54406;SDS011;40313;50.308;30.374;2023-02-22T20:31:28;27.80;;;15.50;;
54406;SDS011;40313;50.308;30.374;2023-02-22T20:33:55;22.30;;;14.15;;
54406;SDS011;40313;50.308;30.374;2023-02-22T20:36:23;32.80;;;16.90;;
54406;SDS011;40313;50.308;30.374;2023-02-22T20:38:50;34.90;;;18.90;;
54406;SDS011;40313;50.308;30.374;2023-02-22T20:41:20;41.80;;;19.05;;
54406;SDS011;40313;50.308;30.374;2023-02-22T20:43:49;110.00;;;51.50;;
54406;SDS011;40313;50.308;30.374;2023-02-22T20:46:16;154.65;;;71.25;;
54406;SDS011;40313;50.308;30.374;2023-02-22T20:48:43;208.60;;;92.70;;
54406;SDS011;40313;50.308;30.374;2023-02-22T21:08:23;56.25;;;25.15;;
54406;SDS011;40313;50.308;30.374;2023-02-22T21:10:50;48.10;;;24.10;;
54406;SDS011;40313;50.308;30.374;2023-02-22T21:23:07;56.20;;;25.20;;
54406;SDS011;40313;50.308;30.374;2023-02-22T21:40:16;22.08;;;11.73;;
54406;SDS011;40313;50.308;30.374;2023-02-22T21:42:44;19.65;;;8.82;;
54406;SDS011;40313;50.308;30.374;2023-02-22T21:45:12;28.83;;;13.63;;
54406;SDS011;40313;50.308;30.374;2023-02-22T21:47:39;16.63;;;10.50;;
54406;SDS011;40313;50.308;30.374;2023-02-22T21:50:07;17.95;;;8.38;;
54406;SDS011;40313;50.308;30.374;2023-02-22T21:52:35;6.03;;;5.43;;